createdAt,value
2019-02-26T00:00:04.450Z,4.29
2019-02-26T00:01:04.126Z,4.37
2019-02-26T00:02:04.116Z,4.37
2019-02-26T00:03:04.733Z,4.28
2019-02-26T00:04:04.282Z,4.34
2019-02-26T00:05:05.031Z,4.39
2019-02-26T00:06:04.092Z,4.43
2019-02-26T00:07:04.374Z,4.37
2019-02-26T00:08:04.052Z,4.50
2019-02-26T00:09:04.051Z,4.57
2019-02-26T00:10:07.044Z,4.59
2019-02-26T00:11:06.708Z,4.59
2019-02-26T00:12:05.536Z,4.69
2019-02-26T00:13:04.027Z,4.77
2019-02-26T00:14:04.299Z,4.79
2019-02-26T00:15:04.558Z,4.84
2019-02-26T00:16:07.595Z,4.75
2019-02-26T00:17:08.633Z,4.72
2019-02-26T00:18:07.473Z,4.77
2019-02-26T00:19:05.160Z,4.75
2019-02-26T00:20:05.657Z,4.76
2019-02-26T00:21:05.011Z,4.75
2019-02-26T00:22:04.069Z,4.75
2019-02-26T00:23:04.384Z,4.76
2019-02-26T00:24:05.039Z,4.75
2019-02-26T00:25:06.259Z,4.80
2019-02-26T00:26:03.861Z,4.91
2019-02-26T00:27:05.555Z,4.86
2019-02-26T00:28:04.275Z,4.84
2019-02-26T00:29:04.487Z,4.91
2019-02-26T00:30:03.829Z,4.88
2019-02-26T00:31:05.894Z,4.75
2019-02-26T00:32:03.793Z,4.83
2019-02-26T00:33:05.237Z,4.72
2019-02-26T00:34:05.826Z,4.69
2019-02-26T00:35:04.988Z,4.73
2019-02-26T00:36:04.487Z,4.58
2019-02-26T00:37:04.555Z,4.61
2019-02-26T00:38:03.732Z,4.65
2019-02-26T00:39:05.099Z,4.55
2019-02-26T00:40:04.104Z,4.51
2019-02-26T00:41:04.363Z,4.62
2019-02-26T00:42:05.190Z,4.61
2019-02-26T00:43:04.783Z,4.64
2019-02-26T00:44:04.314Z,4.58
2019-02-26T00:45:05.816Z,4.55
2019-02-26T00:46:05.600Z,4.46
2019-02-26T00:47:04.835Z,4.43
2019-02-26T00:48:03.634Z,4.29
2019-02-26T00:49:05.877Z,4.36
2019-02-26T00:50:05.131Z,4.29
2019-02-26T00:51:03.595Z,4.36
2019-02-26T00:52:04.721Z,4.34
2019-02-26T00:53:04.044Z,4.36
2019-02-26T00:54:04.142Z,4.34
2019-02-26T00:55:05.388Z,4.37
2019-02-26T00:56:05.720Z,4.34
2019-02-26T00:57:05.759Z,4.40
2019-02-26T00:58:05.702Z,4.32
2019-02-26T00:59:03.511Z,4.28
2019-02-26T01:00:05.281Z,4.36
2019-02-26T01:01:08.250Z,4.28
2019-02-26T01:02:04.504Z,4.36
2019-02-26T01:03:05.735Z,4.39
2019-02-26T01:04:03.604Z,4.26
2019-02-26T01:05:04.033Z,4.28
2019-02-26T01:06:04.122Z,4.34
2019-02-26T01:07:05.327Z,4.37
2019-02-26T01:08:03.453Z,4.22
2019-02-26T01:09:05.868Z,4.24
2019-02-26T01:10:04.056Z,4.32
2019-02-26T01:11:03.923Z,4.33
2019-02-26T01:12:03.377Z,4.28
2019-02-26T01:13:05.064Z,4.26
2019-02-26T01:14:03.379Z,4.26
2019-02-26T01:15:04.943Z,4.28
2019-02-26T01:16:03.735Z,4.34
2019-02-26T01:17:03.624Z,4.32
2019-02-26T01:18:05.470Z,4.25
2019-02-26T01:19:03.299Z,4.24
2019-02-26T01:20:04.012Z,4.36
2019-02-26T01:21:04.285Z,4.25
2019-02-26T01:22:03.485Z,4.26
2019-02-26T01:23:03.261Z,4.28
2019-02-26T01:24:04.312Z,4.33
2019-02-26T01:25:03.248Z,4.28
2019-02-26T01:26:03.233Z,4.32
2019-02-26T01:27:03.239Z,4.36
2019-02-26T01:28:03.323Z,4.24
2019-02-26T01:29:03.199Z,4.22
2019-02-26T01:30:03.443Z,4.19
2019-02-26T01:31:05.024Z,4.24
2019-02-26T01:32:03.166Z,4.18
2019-02-26T01:33:05.002Z,4.22
2019-02-26T01:34:03.223Z,4.22
2019-02-26T01:35:04.144Z,4.21
2019-02-26T01:36:03.138Z,4.18
2019-02-26T01:37:05.513Z,4.24
2019-02-26T01:38:03.106Z,4.16
2019-02-26T01:39:03.089Z,4.21
2019-02-26T01:40:03.133Z,4.19
2019-02-26T01:41:03.075Z,4.15
2019-02-26T01:42:03.057Z,4.18
2019-02-26T01:43:05.487Z,4.15
2019-02-26T01:44:03.350Z,4.06
2019-02-26T01:45:04.013Z,4.14
2019-02-26T01:46:03.075Z,4.07
2019-02-26T01:47:04.723Z,3.98
2019-02-26T01:48:04.083Z,3.97
2019-02-26T01:49:04.322Z,4.01
2019-02-26T01:50:04.234Z,4.00
2019-02-26T01:51:03.426Z,3.98
2019-02-26T01:52:03.052Z,4.00
2019-02-26T01:53:02.956Z,4.06
2019-02-26T01:54:02.932Z,4.03
2019-02-26T01:55:02.937Z,4.03
2019-02-26T01:56:05.108Z,4.10
2019-02-26T01:57:02.903Z,4.03
2019-02-26T01:58:03.237Z,4.12
2019-02-26T01:59:02.901Z,4.15
2019-02-26T02:00:06.417Z,4.14
2019-02-26T02:01:02.937Z,4.15
2019-02-26T02:02:02.950Z,4.15
2019-02-26T02:03:02.851Z,4.15
2019-02-26T02:04:02.900Z,4.15
2019-02-26T02:05:04.963Z,4.12
2019-02-26T02:06:02.813Z,4.19
2019-02-26T02:07:04.210Z,4.16
2019-02-26T02:08:02.790Z,4.14
2019-02-26T02:09:02.828Z,4.14
2019-02-26T02:10:03.230Z,4.10
2019-02-26T02:11:04.816Z,4.08
2019-02-26T02:12:04.233Z,4.01
2019-02-26T02:13:04.617Z,4.03
2019-02-26T02:14:05.677Z,4.00
2019-02-26T02:15:02.720Z,3.98
2019-02-26T02:16:04.477Z,3.96
2019-02-26T02:17:03.617Z,3.97
2019-02-26T02:18:04.099Z,3.85
2019-02-26T02:19:02.991Z,3.85
2019-02-26T02:20:05.193Z,3.85
2019-02-26T02:21:03.699Z,3.85
2019-02-26T02:22:02.640Z,3.88
2019-02-26T02:23:04.667Z,3.86
2019-02-26T02:24:02.617Z,3.76
2019-02-26T02:25:02.621Z,3.88
2019-02-26T02:26:04.396Z,3.83
2019-02-26T02:27:02.915Z,3.85
2019-02-26T02:28:04.426Z,3.78
2019-02-26T02:29:02.566Z,3.88
2019-02-26T02:30:02.565Z,3.82
2019-02-26T02:31:02.544Z,3.88
2019-02-26T02:32:04.977Z,3.86
2019-02-26T02:33:02.869Z,3.94
2019-02-26T02:34:02.521Z,3.85
2019-02-26T02:35:05.497Z,3.88
2019-02-26T02:36:02.494Z,3.85
2019-02-26T02:37:02.486Z,3.88
2019-02-26T02:38:04.798Z,3.80
2019-02-26T02:39:02.515Z,3.79
2019-02-26T02:40:02.757Z,3.78
2019-02-26T02:41:02.441Z,3.49
2019-02-26T02:42:02.436Z,3.36
2019-02-26T02:43:04.642Z,3.18
2019-02-26T02:44:03.773Z,3.07
2019-02-26T02:45:05.069Z,3.03
2019-02-26T02:46:02.396Z,2.95
2019-02-26T02:47:04.256Z,2.88
2019-02-26T02:48:03.343Z,2.89
2019-02-26T02:49:04.524Z,2.97
2019-02-26T02:50:03.152Z,2.97
2019-02-26T02:51:05.350Z,3.06
2019-02-26T02:52:04.152Z,3.16
2019-02-26T02:53:04.054Z,3.30
2019-02-26T02:54:02.610Z,3.25
2019-02-26T02:55:04.401Z,3.31
2019-02-26T02:56:03.696Z,3.31
2019-02-26T02:57:03.001Z,3.30
2019-02-26T02:58:02.265Z,3.44
2019-02-26T02:59:03.546Z,3.47
2019-02-26T03:00:02.998Z,3.49
2019-02-26T03:01:21.810Z,3.46
2019-02-26T03:02:02.219Z,3.57
2019-02-26T03:03:02.207Z,3.60
2019-02-26T03:04:02.473Z,3.61
2019-02-26T03:05:02.185Z,3.47
2019-02-26T03:06:06.522Z,3.49
2019-02-26T03:07:03.093Z,3.54
2019-02-26T03:08:02.151Z,3.42
2019-02-26T03:09:02.140Z,3.42
2019-02-26T03:10:04.545Z,3.47
2019-02-26T03:11:02.121Z,3.47
2019-02-26T03:12:02.109Z,3.40
2019-02-26T03:13:02.970Z,3.39
2019-02-26T03:14:02.091Z,3.40
2019-02-26T03:15:02.889Z,3.36
2019-02-26T03:16:02.075Z,3.36
2019-02-26T03:17:02.068Z,3.43
2019-02-26T03:18:04.162Z,3.40
2019-02-26T03:19:04.139Z,3.43
2019-02-26T03:20:04.840Z,3.44
2019-02-26T03:21:04.785Z,3.57
2019-02-26T03:22:02.014Z,3.49
2019-02-26T03:23:04.085Z,3.47
2019-02-26T03:24:03.362Z,3.44
2019-02-26T03:25:02.547Z,3.50
2019-02-26T03:26:01.995Z,3.50
2019-02-26T03:27:02.071Z,3.57
2019-02-26T03:28:01.937Z,3.57
2019-02-26T03:29:01.937Z,3.49
2019-02-26T03:30:02.278Z,3.58
2019-02-26T03:31:01.952Z,3.58
2019-02-26T03:32:01.938Z,3.58
2019-02-26T03:33:04.407Z,3.47
2019-02-26T03:34:08.815Z,3.60
2019-02-26T03:35:07.134Z,3.49
2019-02-26T03:36:05.506Z,3.52
2019-02-26T03:37:03.867Z,3.57
2019-02-26T03:38:03.602Z,3.50
2019-02-26T03:39:02.840Z,3.58
2019-02-26T03:40:03.677Z,3.47
2019-02-26T03:41:03.684Z,3.44
2019-02-26T03:42:01.911Z,3.44
2019-02-26T03:43:04.406Z,3.44
2019-02-26T03:44:03.291Z,3.53
2019-02-26T03:45:02.935Z,3.53
2019-02-26T03:46:01.747Z,3.57
2019-02-26T03:47:01.739Z,3.57
2019-02-26T03:48:01.801Z,3.57
2019-02-26T03:49:02.896Z,3.47
2019-02-26T03:50:01.732Z,3.44
2019-02-26T03:51:01.722Z,3.42
2019-02-26T03:52:01.993Z,3.44
2019-02-26T03:53:01.697Z,3.44
2019-02-26T03:54:01.750Z,3.42
2019-02-26T03:55:03.607Z,3.31
2019-02-26T03:56:04.317Z,3.25
2019-02-26T03:57:01.632Z,3.31
2019-02-26T03:58:02.227Z,3.30
2019-02-26T03:59:05.754Z,3.27
2019-02-26T04:00:05.635Z,3.30
2019-02-26T04:01:04.486Z,3.27
2019-02-26T04:02:02.609Z,3.16
2019-02-26T04:03:03.426Z,3.21
2019-02-26T04:04:02.463Z,3.20
2019-02-26T04:05:02.922Z,3.25
2019-02-26T04:06:03.127Z,3.27
2019-02-26T04:07:04.144Z,3.21
2019-02-26T04:08:04.416Z,3.25
2019-02-26T04:09:01.540Z,3.25
2019-02-26T04:10:01.486Z,3.30
2019-02-26T04:11:02.027Z,3.25
2019-02-26T04:12:01.660Z,3.24
2019-02-26T04:13:01.849Z,3.28
2019-02-26T04:14:01.494Z,3.21
2019-02-26T04:15:01.445Z,3.23
2019-02-26T04:16:03.881Z,3.18
2019-02-26T04:17:03.542Z,3.10
2019-02-26T04:18:01.601Z,3.21
2019-02-26T04:19:01.421Z,3.10
2019-02-26T04:20:02.664Z,3.16
2019-02-26T04:21:05.725Z,3.12
2019-02-26T04:22:02.365Z,3.12
2019-02-26T04:23:01.352Z,3.09
2019-02-26T04:24:03.457Z,3.12
2019-02-26T04:25:05.144Z,3.09
2019-02-26T04:26:02.330Z,3.15
2019-02-26T04:27:01.678Z,2.97
2019-02-26T04:28:02.600Z,3.02
2019-02-26T04:29:01.287Z,3.03
2019-02-26T04:30:01.376Z,3.05
2019-02-26T04:31:03.004Z,2.97
2019-02-26T04:32:01.251Z,3.00
2019-02-26T04:33:02.073Z,2.98
2019-02-26T04:34:04.416Z,3.02
2019-02-26T04:35:02.824Z,2.94
2019-02-26T04:36:01.270Z,2.91
2019-02-26T04:37:02.482Z,3.05
2019-02-26T04:38:03.345Z,3.00
2019-02-26T04:39:01.190Z,3.06
2019-02-26T04:40:04.758Z,3.13
2019-02-26T04:41:03.052Z,3.16
2019-02-26T04:42:03.610Z,3.06
2019-02-26T04:43:01.904Z,3.13
2019-02-26T04:44:03.247Z,3.10
2019-02-26T04:45:04.892Z,3.18
2019-02-26T04:46:02.856Z,3.12
2019-02-26T04:47:05.351Z,3.13
2019-02-26T04:48:01.089Z,3.09
2019-02-26T04:49:01.074Z,3.15
2019-02-26T04:50:03.901Z,3.13
2019-02-26T04:51:02.075Z,3.05
2019-02-26T04:52:02.934Z,3.06
2019-02-26T04:53:02.814Z,3.00
2019-02-26T04:54:02.113Z,3.06
2019-02-26T04:55:01.015Z,3.03
2019-02-26T04:56:02.993Z,2.98
2019-02-26T04:57:01.000Z,2.95
2019-02-26T04:58:00.977Z,2.94
2019-02-26T04:59:03.557Z,2.94
2019-02-26T05:00:02.419Z,2.94
2019-02-26T05:01:01.242Z,2.88
2019-02-26T05:02:01.080Z,2.89
2019-02-26T05:03:00.928Z,2.94
2019-02-26T05:04:00.918Z,2.91
2019-02-26T05:05:00.969Z,2.77
2019-02-26T05:06:03.016Z,2.77
2019-02-26T05:07:04.432Z,2.81
2019-02-26T05:08:00.873Z,2.91
2019-02-26T05:09:02.788Z,2.95
2019-02-26T05:10:02.175Z,2.94
2019-02-26T05:11:00.888Z,2.92
2019-02-26T05:12:00.829Z,2.89
2019-02-26T05:13:03.287Z,2.92
2019-02-26T05:14:02.098Z,2.76
2019-02-26T05:15:00.811Z,2.64
2019-02-26T05:16:00.791Z,2.58
2019-02-26T05:17:00.827Z,2.51
2019-02-26T05:18:00.843Z,2.49
2019-02-26T05:19:00.754Z,2.55
2019-02-26T05:20:00.744Z,2.55
2019-02-26T05:21:04.193Z,2.61
2019-02-26T05:22:01.667Z,2.66
2019-02-26T05:23:02.626Z,2.69
2019-02-26T05:24:02.944Z,2.69
2019-02-26T05:25:00.685Z,2.67
2019-02-26T05:26:05.135Z,2.67
2019-02-26T05:27:01.712Z,2.63
2019-02-26T05:28:00.654Z,2.64
2019-02-26T05:29:00.683Z,2.71
2019-02-26T05:30:00.638Z,2.63
2019-02-26T05:31:00.620Z,2.53
2019-02-26T05:32:01.757Z,2.69
2019-02-26T05:33:02.764Z,2.71
2019-02-26T05:34:00.905Z,2.66
2019-02-26T05:35:00.653Z,2.67
2019-02-26T05:36:00.584Z,2.69
2019-02-26T05:37:02.366Z,2.64
2019-02-26T05:38:03.377Z,2.69
2019-02-26T05:39:02.264Z,2.67
2019-02-26T05:40:00.812Z,2.69
2019-02-26T05:41:00.590Z,2.67
2019-02-26T05:42:01.314Z,2.58
2019-02-26T05:43:01.877Z,2.55
2019-02-26T05:44:01.839Z,2.55
2019-02-26T05:45:02.953Z,2.56
2019-02-26T05:46:03.243Z,2.61
2019-02-26T05:47:01.578Z,2.55
2019-02-26T05:48:00.459Z,2.53
2019-02-26T05:49:00.440Z,2.56
2019-02-26T05:50:02.675Z,2.56
2019-02-26T05:51:03.556Z,2.52
2019-02-26T05:52:01.746Z,2.59
2019-02-26T05:53:01.825Z,2.61
2019-02-26T05:54:02.159Z,2.59
2019-02-26T05:55:01.361Z,2.51
2019-02-26T05:56:00.373Z,2.55
2019-02-26T05:57:01.751Z,2.46
2019-02-26T05:58:00.354Z,2.58
2019-02-26T05:59:04.316Z,2.51
2019-02-26T06:00:01.375Z,2.53
2019-02-26T06:01:00.387Z,2.35
2019-02-26T06:02:00.294Z,2.31
2019-02-26T06:03:00.339Z,2.34
2019-02-26T06:04:00.267Z,2.34
2019-02-26T06:05:00.594Z,2.27
2019-02-26T06:06:00.596Z,2.37
2019-02-26T06:07:02.166Z,2.37
2019-02-26T06:08:00.303Z,2.34
2019-02-26T06:09:02.285Z,2.38
2019-02-26T06:10:00.206Z,2.46
2019-02-26T06:11:00.248Z,2.40
2019-02-26T06:12:00.517Z,2.38
2019-02-26T06:13:02.195Z,2.45
2019-02-26T06:14:05.409Z,2.51
2019-02-26T06:15:05.145Z,2.51
2019-02-26T06:16:01.963Z,2.53
2019-02-26T06:17:00.165Z,2.67
2019-02-26T06:18:01.045Z,2.55
2019-02-26T06:19:00.130Z,2.74
2019-02-26T06:20:02.089Z,2.76
2019-02-26T06:21:01.195Z,2.81
2019-02-26T06:22:00.127Z,2.82
2019-02-26T06:23:00.098Z,2.79
2019-02-26T06:24:01.010Z,2.76
2019-02-26T06:25:04.054Z,2.81
2019-02-26T06:26:02.529Z,2.84
2019-02-26T06:27:00.113Z,2.77
2019-02-26T06:28:02.277Z,2.77
2019-02-26T06:29:00.007Z,2.76
2019-02-26T06:30:03.217Z,2.79
2019-02-26T06:31:01.070Z,2.79
2019-02-26T06:32:00.890Z,2.84
2019-02-26T06:33:04.103Z,2.82
2019-02-26T06:34:03.530Z,2.84
2019-02-26T06:35:01.045Z,2.94
2019-02-26T06:36:01.665Z,2.94
2019-02-26T06:37:00.066Z,2.88
2019-02-26T06:38:02.084Z,2.95
2019-02-26T06:39:01.551Z,2.92
2019-02-26T06:40:02.490Z,2.85
2019-02-26T06:41:00.065Z,2.89
2019-02-26T06:41:59.875Z,2.89
2019-02-26T06:42:59.882Z,2.89
2019-02-26T06:43:59.899Z,2.87
2019-02-26T06:44:59.854Z,2.66
2019-02-26T06:46:00.813Z,2.51
2019-02-26T06:47:00.403Z,2.44
2019-02-26T06:47:59.824Z,2.46
2019-02-26T06:48:59.819Z,2.34
2019-02-26T06:50:00.239Z,2.27
2019-02-26T06:51:00.463Z,2.37
2019-02-26T06:51:59.909Z,2.35
2019-02-26T06:52:59.815Z,2.34
2019-02-26T06:54:01.064Z,2.30
2019-02-26T06:55:00.947Z,2.31
2019-02-26T06:56:00.743Z,2.31
2019-02-26T06:56:59.705Z,2.34
2019-02-26T06:57:59.750Z,2.28
2019-02-26T06:59:00.723Z,2.34
2019-02-26T07:00:01.349Z,2.38
2019-02-26T07:00:59.682Z,2.45
2019-02-26T07:01:59.652Z,2.56
2019-02-26T07:03:00.136Z,2.69
2019-02-26T07:03:59.710Z,2.76
2019-02-26T07:04:59.632Z,2.85
2019-02-26T07:06:03.174Z,2.87
2019-02-26T07:07:01.931Z,2.89
2019-02-26T07:08:02.056Z,2.91
2019-02-26T07:08:59.586Z,3.05
2019-02-26T07:09:59.633Z,3.06
2019-02-26T07:10:59.558Z,3.05
2019-02-26T07:11:59.547Z,3.09
2019-02-26T07:12:59.584Z,3.12
2019-02-26T07:14:01.430Z,3.05
2019-02-26T07:14:59.512Z,3.20
2019-02-26T07:15:59.587Z,3.30
2019-02-26T07:16:59.655Z,3.24
2019-02-26T07:18:02.232Z,3.21
2019-02-26T07:19:01.111Z,3.20
2019-02-26T07:20:00.400Z,3.24
2019-02-26T07:21:00.297Z,3.20
2019-02-26T07:21:59.632Z,3.21
2019-02-26T07:22:59.426Z,3.33
2019-02-26T07:24:01.182Z,3.34
2019-02-26T07:24:59.416Z,3.46
2019-02-26T07:25:59.427Z,3.49
2019-02-26T07:26:59.385Z,3.61
2019-02-26T07:28:01.195Z,3.64
2019-02-26T07:28:59.364Z,3.53
2019-02-26T07:29:59.357Z,3.61
2019-02-26T07:31:00.459Z,3.67
2019-02-26T07:31:59.328Z,3.58
2019-02-26T07:32:59.341Z,3.68
2019-02-26T07:34:01.340Z,3.83
2019-02-26T07:34:59.595Z,3.76
2019-02-26T07:36:01.648Z,3.83
2019-02-26T07:36:59.273Z,3.89
2019-02-26T07:38:01.182Z,4.00
2019-02-26T07:38:59.256Z,3.90
2019-02-26T07:39:59.326Z,4.00
2019-02-26T07:41:01.422Z,4.00
2019-02-26T07:41:59.755Z,4.04
2019-02-26T07:42:59.272Z,4.06
2019-02-26T07:43:59.998Z,4.06
2019-02-26T07:44:59.193Z,4.14
2019-02-26T07:45:59.270Z,4.14
2019-02-26T07:47:00.911Z,4.14
2019-02-26T07:48:00.837Z,4.24
2019-02-26T07:49:01.898Z,4.67
2019-02-26T07:50:01.620Z,5.78
2019-02-26T07:50:59.176Z,7.34
2019-02-26T07:52:00.437Z,9.09
2019-02-26T07:52:59.472Z,10.46
2019-02-26T07:54:00.746Z,11.70
2019-02-26T07:55:00.221Z,12.64
2019-02-26T07:56:01.222Z,13.43
2019-02-26T07:57:00.579Z,14.02
2019-02-26T07:57:59.981Z,14.56
2019-02-26T07:59:01.407Z,15.06
2019-02-26T07:59:59.052Z,15.36
2019-02-26T08:00:59.072Z,15.74
2019-02-26T08:01:59.061Z,16.06
2019-02-26T08:03:02.123Z,16.16
2019-02-26T08:03:59.326Z,16.20
2019-02-26T08:04:58.977Z,16.25
2019-02-26T08:06:00.196Z,16.45
2019-02-26T08:07:00.973Z,16.77
2019-02-26T08:07:58.946Z,16.22
2019-02-26T08:08:58.981Z,15.81
2019-02-26T08:10:00.408Z,15.48
2019-02-26T08:10:59.041Z,15.52
2019-02-26T08:11:59.481Z,15.27
2019-02-26T08:13:01.049Z,14.61
2019-02-26T08:13:59.694Z,13.46
2019-02-26T08:14:58.896Z,12.21
2019-02-26T08:16:00.228Z,10.86
2019-02-26T08:17:01.309Z,10.01
2019-02-26T08:18:01.267Z,9.23
2019-02-26T08:18:59.419Z,8.75
2019-02-26T08:19:58.816Z,8.36
2019-02-26T08:21:00.784Z,8.00
2019-02-26T08:21:58.913Z,7.81
2019-02-26T08:23:01.228Z,7.42
2019-02-26T08:23:59.152Z,7.20
2019-02-26T08:24:58.847Z,7.09
2019-02-26T08:26:00.435Z,7.01
2019-02-26T08:26:58.758Z,6.86
2019-02-26T08:28:01.313Z,6.71
2019-02-26T08:29:00.266Z,6.73
2019-02-26T08:30:00.867Z,6.62
2019-02-26T08:30:59.238Z,6.59
2019-02-26T08:31:59.634Z,6.66
2019-02-26T08:32:59.753Z,6.54
2019-02-26T08:33:58.730Z,6.56
2019-02-26T08:35:00.022Z,6.54
2019-02-26T08:35:58.653Z,6.54
2019-02-26T08:36:58.643Z,6.58
2019-02-26T08:37:59.965Z,6.58
2019-02-26T08:38:58.622Z,6.62
2019-02-26T08:39:58.763Z,6.63
2019-02-26T08:40:58.590Z,6.71
2019-02-26T08:41:58.581Z,6.69
2019-02-26T08:42:58.655Z,6.76
2019-02-26T08:43:59.007Z,6.72
2019-02-26T08:44:58.562Z,6.83
2019-02-26T08:45:58.849Z,6.91
2019-02-26T08:46:58.528Z,6.91
2019-02-26T08:47:58.844Z,7.01
2019-02-26T08:49:07.904Z,7.04
2019-02-26T08:50:01.179Z,7.08
2019-02-26T08:51:00.811Z,7.07
2019-02-26T08:51:58.747Z,7.17
2019-02-26T08:52:59.446Z,7.40
2019-02-26T08:53:58.476Z,7.32
2019-02-26T08:54:58.442Z,7.50
2019-02-26T08:55:59.673Z,7.53
2019-02-26T08:56:58.420Z,7.69
2019-02-26T08:57:58.497Z,7.56
2019-02-26T08:59:00.462Z,7.63
2019-02-26T08:59:58.400Z,7.55
2019-02-26T09:00:58.382Z,7.56
2019-02-26T09:01:58.514Z,7.49
2019-02-26T09:02:58.469Z,7.60
2019-02-26T09:04:00.810Z,7.69
2019-02-26T09:04:59.357Z,7.62
2019-02-26T09:06:10.094Z,7.69
2019-02-26T09:07:00.285Z,7.77
2019-02-26T09:07:58.763Z,7.89
2019-02-26T09:09:00.157Z,7.79
2019-02-26T09:09:58.343Z,7.85
2019-02-26T09:10:58.278Z,7.77
2019-02-26T09:12:00.650Z,7.81
2019-02-26T09:12:58.393Z,7.78
2019-02-26T09:13:59.580Z,7.90
2019-02-26T09:15:02.832Z,7.89
2019-02-26T09:16:01.019Z,7.87
2019-02-26T09:16:59.587Z,7.94
2019-02-26T09:17:58.345Z,7.93
2019-02-26T09:18:58.372Z,7.84
2019-02-26T09:20:08.475Z,7.89
2019-02-26T09:20:59.507Z,7.94
2019-02-26T09:21:58.537Z,8.04
2019-02-26T09:22:59.640Z,8.12
2019-02-26T09:24:00.048Z,8.17
2019-02-26T09:25:01.475Z,8.28
2019-02-26T09:26:00.409Z,8.30
2019-02-26T09:26:59.935Z,8.33
2019-02-26T09:27:58.095Z,8.33
2019-02-26T09:28:58.532Z,8.42
2019-02-26T09:29:58.076Z,8.53
2019-02-26T09:31:01.045Z,8.63
2019-02-26T09:31:58.057Z,8.58
2019-02-26T09:33:00.899Z,8.62
2019-02-26T09:33:58.242Z,8.58
2019-02-26T09:34:59.683Z,8.73
2019-02-26T09:35:59.726Z,8.84
2019-02-26T09:36:58.358Z,8.93
2019-02-26T09:38:00.810Z,9.02
2019-02-26T09:38:58.514Z,8.96
2019-02-26T09:39:59.334Z,8.94
2019-02-26T09:40:58.051Z,8.97
2019-02-26T09:41:59.392Z,8.93
2019-02-26T09:43:00.136Z,9.13
2019-02-26T09:43:59.338Z,9.18
2019-02-26T09:45:00.076Z,9.16
2019-02-26T09:45:59.423Z,9.10
2019-02-26T09:47:00.044Z,9.05
2019-02-26T09:47:58.321Z,9.21
2019-02-26T09:49:00.938Z,9.23
2019-02-26T09:49:58.447Z,9.27
2019-02-26T09:50:57.917Z,9.34
2019-02-26T09:51:59.048Z,9.39
2019-02-26T09:52:59.110Z,9.49
2019-02-26T09:53:58.971Z,9.57
2019-02-26T09:54:58.229Z,9.60
2019-02-26T09:55:59.354Z,9.63
2019-02-26T09:56:57.938Z,9.64
2019-02-26T09:57:57.807Z,9.71
2019-02-26T09:58:57.787Z,9.82
2019-02-26T10:00:00.070Z,9.96
2019-02-26T10:00:57.806Z,10.00
2019-02-26T10:01:58.945Z,10.03
2019-02-26T10:02:58.380Z,10.24
2019-02-26T10:03:58.495Z,10.40
2019-02-26T10:04:57.796Z,10.37
2019-02-26T10:05:57.968Z,10.34
2019-02-26T10:06:57.684Z,10.34
2019-02-26T10:08:00.454Z,10.43
2019-02-26T10:08:57.889Z,10.52
2019-02-26T10:10:00.429Z,10.51
2019-02-26T10:10:59.688Z,10.65
2019-02-26T10:11:57.658Z,10.65
2019-02-26T10:12:59.934Z,10.66
2019-02-26T10:13:57.615Z,10.84
2019-02-26T10:14:59.631Z,10.83
2019-02-26T10:15:59.245Z,10.80
2019-02-26T10:16:58.145Z,10.73
2019-02-26T10:18:00.900Z,10.76
2019-02-26T10:18:57.558Z,10.81
2019-02-26T10:19:59.365Z,11.02
2019-02-26T10:20:57.573Z,11.09
2019-02-26T10:22:00.048Z,11.20
2019-02-26T10:23:00.436Z,11.24
2019-02-26T10:23:59.435Z,11.28
2019-02-26T10:24:57.484Z,11.25
2019-02-26T10:25:59.743Z,11.46
2019-02-26T10:27:00.813Z,11.41
2019-02-26T10:28:03.081Z,11.44
2019-02-26T10:29:04.139Z,11.44
2019-02-26T10:29:58.429Z,11.43
2019-02-26T10:30:59.628Z,11.43
2019-02-26T10:31:58.484Z,11.54
2019-02-26T10:33:01.854Z,11.53
2019-02-26T10:33:58.436Z,11.44
2019-02-26T10:34:57.488Z,11.49
2019-02-26T10:35:57.378Z,11.62
2019-02-26T10:36:57.362Z,11.56
2019-02-26T10:37:59.710Z,11.65
2019-02-26T10:39:00.243Z,11.56
2019-02-26T10:39:57.339Z,11.68
2019-02-26T10:40:59.193Z,11.70
2019-02-26T10:42:01.962Z,11.75
2019-02-26T10:42:57.335Z,11.77
2019-02-26T10:43:59.043Z,11.77
2019-02-26T10:44:57.739Z,11.93
2019-02-26T10:45:57.531Z,11.87
2019-02-26T10:46:58.323Z,11.87
2019-02-26T10:47:59.389Z,11.94
2019-02-26T10:48:57.232Z,11.99
2019-02-26T10:49:57.269Z,12.04
2019-02-26T10:50:57.206Z,12.08
2019-02-26T10:51:58.518Z,12.16
2019-02-26T10:53:01.743Z,12.20
2019-02-26T10:53:59.959Z,12.34
2019-02-26T10:54:57.186Z,12.31
2019-02-26T10:55:57.332Z,12.31
2019-02-26T10:56:59.607Z,12.39
2019-02-26T10:57:58.617Z,12.42
2019-02-26T10:59:02.937Z,12.46
2019-02-26T10:59:59.631Z,12.44
2019-02-26T11:00:59.396Z,12.44
2019-02-26T11:01:58.416Z,12.44
2019-02-26T11:02:57.079Z,12.56
2019-02-26T11:03:58.166Z,12.63
2019-02-26T11:04:57.077Z,12.63
2019-02-26T11:05:57.052Z,12.64
2019-02-26T11:06:59.095Z,12.79
2019-02-26T11:08:01.896Z,12.84
2019-02-26T11:08:59.332Z,12.81
2019-02-26T11:09:58.926Z,12.74
2019-02-26T11:10:59.998Z,12.64
2019-02-26T11:11:58.366Z,12.77
2019-02-26T11:12:59.540Z,12.81
2019-02-26T11:13:57.251Z,12.79
2019-02-26T11:14:58.583Z,12.78
2019-02-26T11:15:59.858Z,12.89
2019-02-26T11:16:58.143Z,12.95
2019-02-26T11:17:57.598Z,12.97
2019-02-26T11:18:58.815Z,13.00
2019-02-26T11:19:58.526Z,13.03
2019-02-26T11:20:59.301Z,13.18
2019-02-26T11:22:00.856Z,13.21
2019-02-26T11:22:57.862Z,13.38
2019-02-26T11:23:58.459Z,13.52
2019-02-26T11:24:58.497Z,13.56
2019-02-26T11:25:57.422Z,13.67
2019-02-26T11:26:56.992Z,13.79
2019-02-26T11:27:56.905Z,13.99
2019-02-26T11:28:57.401Z,14.17
2019-02-26T11:29:57.789Z,14.74
2019-02-26T11:30:56.916Z,15.48
2019-02-26T11:31:56.826Z,16.38
2019-02-26T11:33:02.075Z,17.59
2019-02-26T11:34:01.012Z,18.98
2019-02-26T11:35:01.813Z,20.81
2019-02-26T11:35:57.199Z,22.14
2019-02-26T11:36:58.479Z,22.93
2019-02-26T11:37:57.944Z,23.15
2019-02-26T11:38:56.737Z,23.40
2019-02-26T11:39:57.800Z,23.38
2019-02-26T11:40:56.671Z,24.52
2019-02-26T11:41:58.634Z,25.54
2019-02-26T11:42:56.668Z,26.59
2019-02-26T11:43:56.804Z,27.14
2019-02-26T11:44:56.623Z,27.62
2019-02-26T11:45:58.864Z,28.19
2019-02-26T11:46:56.767Z,28.50
2019-02-26T11:47:58.065Z,28.26
2019-02-26T11:48:57.440Z,27.64
2019-02-26T11:50:02.760Z,27.29
2019-02-26T11:51:00.787Z,26.50
2019-02-26T11:51:57.119Z,26.64
2019-02-26T11:52:57.045Z,26.84
2019-02-26T11:53:56.529Z,26.32
2019-02-26T11:54:58.731Z,26.49
2019-02-26T11:55:57.380Z,26.58
2019-02-26T11:56:57.120Z,26.21
2019-02-26T11:57:56.797Z,25.94
2019-02-26T11:58:56.769Z,26.59
2019-02-26T11:59:58.930Z,26.74
2019-02-26T12:00:57.349Z,27.10
2019-02-26T12:01:58.948Z,27.67
2019-02-26T12:02:57.401Z,27.91
2019-02-26T12:04:03.291Z,27.80
2019-02-26T12:04:59.885Z,27.59
2019-02-26T12:05:58.484Z,28.25
2019-02-26T12:06:58.519Z,28.65
2019-02-26T12:07:58.701Z,27.57
2019-02-26T12:08:56.987Z,27.88
2019-02-26T12:09:57.875Z,27.59
2019-02-26T12:11:01.135Z,27.39
2019-02-26T12:11:58.590Z,27.95
2019-02-26T12:12:59.378Z,27.96
2019-02-26T12:13:57.269Z,27.89
2019-02-26T12:14:56.921Z,27.76
2019-02-26T12:15:56.778Z,27.64
2019-02-26T12:16:56.365Z,27.39
2019-02-26T12:17:56.859Z,27.96
2019-02-26T12:18:58.778Z,28.35
2019-02-26T12:19:57.968Z,28.85
2019-02-26T12:20:56.487Z,27.94
2019-02-26T12:21:57.460Z,28.53
2019-02-26T12:22:56.768Z,28.73
2019-02-26T12:23:58.004Z,28.01
2019-02-26T12:24:58.874Z,28.22
2019-02-26T12:25:59.298Z,28.44
2019-02-26T12:26:56.675Z,26.92
2019-02-26T12:27:57.494Z,26.05
2019-02-26T12:28:57.256Z,27.42
2019-02-26T12:29:56.527Z,27.67
2019-02-26T12:30:58.598Z,28.07
2019-02-26T12:32:01.058Z,28.66
2019-02-26T12:32:57.565Z,28.72
2019-02-26T12:33:56.776Z,29.25
2019-02-26T12:34:56.238Z,29.44
2019-02-26T12:35:59.556Z,28.88
2019-02-26T12:37:02.062Z,28.95
2019-02-26T12:38:59.966Z,28.48
2019-02-26T12:39:57.913Z,29.00
2019-02-26T12:40:57.030Z,28.56
2019-02-26T12:41:57.025Z,28.19
2019-02-26T12:42:56.057Z,28.54
2019-02-26T12:44:00.855Z,28.88
2019-02-26T12:45:00.335Z,27.69
2019-02-26T12:45:58.893Z,27.88
2019-02-26T12:47:00.489Z,27.91
2019-02-26T12:47:56.032Z,27.47
2019-02-26T12:48:56.685Z,26.98
2019-02-26T12:50:01.667Z,26.91
2019-02-26T12:50:58.382Z,27.99
2019-02-26T12:51:56.704Z,29.33
2019-02-26T12:52:57.114Z,30.33
2019-02-26T12:53:56.630Z,30.86
2019-02-26T12:54:57.722Z,30.54
2019-02-26T12:55:56.646Z,29.94
2019-02-26T12:56:57.761Z,28.32
2019-02-26T12:57:56.367Z,26.52
2019-02-26T12:58:55.894Z,24.60
2019-02-26T12:59:55.939Z,22.46
2019-02-26T13:01:01.196Z,21.06
2019-02-26T13:01:55.923Z,20.13
2019-02-26T13:02:55.861Z,19.48
2019-02-26T13:03:55.980Z,19.13
2019-02-26T13:04:55.888Z,18.73
2019-02-26T13:05:56.071Z,18.37
2019-02-26T13:06:56.361Z,18.27
2019-02-26T13:07:56.898Z,18.27
2019-02-26T13:08:55.903Z,18.19
2019-02-26T13:10:00.500Z,18.19
2019-02-26T13:10:58.403Z,18.21
2019-02-26T13:12:02.480Z,18.09